world map with JOS marked

JOS - Airport

This information may not be accurate or current and is not valid for navigation or flight planning. No warranty of fitness for any purpose is made or implied.

flag of Nigeria

Donate via PayPal

Additional information is available on the NEW Great Circle Mapper

Location
City:  Jos, Plateau, Nigeria
Name:Yakubu Gowon Airport
ICAO / IATA:DNJO / JOS

Details
Type:Airport (Aerodrome, Airfield)
Use:Public/Civil
Latitude:9°38'23"N (9.639828)
Longitude:8°52'09"E (8.869050)
Datum:WGS 1984
Elevation:4232 ft (1290 m)
Runways:1
Longest:9845 × 148 ft (3001 × 45 m)

Time
Timezone:UTC+1 (DST+3)
Local Time:

Weather
METAR:DNJO  040700Z 15005KT 8000 NSC 20/20 Q1018
TAF:DNJO  040930Z 0412/0518 07008KT 7000 NSC BECMG 0413/0415 17010KT

Related Locations
Nearby:
Farthest:AAU: 12148 mi / 19550 km
Asau, WS

Find:

   beyond  
but within

Other Information
Maps:
Sources:

  


 


Great Circle Mapper   Great Circle Mapper
Great Circle Mapper FAQ   Great Circle Mapper FAQ
  Karl's Home Page
KLSē   KLSē Home
   GC on Facebook
Airlines of the World   Airlines of the World
Donate via PayPal


Copyright © 2004-2019, Karl L. Swartz. All rights reserved.
All trademarks mentioned herein belong to their respective owners.

Please see credits for attribution and copyright information.

Karl Swartz <karl@kls2.com>
  Powered by FreeBSD
Valid HTML 4.01!
Labeled with ICRA
hCard Microformat
Geo Microformat